YWLM

Newcastle Airport

Williamtown, Australia
TAF YWLM 210508Z 2106/2206 27013KT CAVOK FM211800 29015G25KT CAVOK FM220200 18014KT 9999 SCT040
Issued Valid From Valid To
Aug-21 @ 05:08 UTC
(13 hours ago)
Aug-21 @ 06:00 UTC
(12 hours ago)
Aug-22 @ 06:00 UTC
(in 12 hours)
Aug-21 @ 06:00 to Aug-21 @ 18:00
TAF YWLM 210508Z 2106/2206 27013KT CAVOK
Wind Visibility Clouds Conditions
270° at 13 knots 10,000+ meters
  • No significant clouds
From Aug-21 @ 18:00 to Aug-22 @ 02:00
FM211800 29015G25KT CAVOK
Wind Visibility Clouds Conditions
290° at 15 knots
 Gusting to 25 knots
10,000+ meters
  • No significant clouds
From Aug-22 @ 02:00 to Aug-22 @ 06:00
FM220200 18014KT 9999 SCT040
Wind Visibility Clouds
180° at 14 knots 10,000+ meters
  • Scattered at 4,000' AGL
TAF YWLM 210508Z 2106/2206 27013KT CAVOK FM211800 29015G25KT CAVOK FM220200 18014KT 9999 SCT040
Issued Aug-21 @ 05:08 UTC
(13 hours ago)
Valid From Aug-21 @ 06:00 UTC
(12 hours ago)
Valid To Aug-22 @ 06:00 UTC
(in 12 hours)
Aug-21 @ 06:00 - Aug-21 @ 18:00
Wind Visibility
270° at 13 knots 10,000+ meters
Clouds
  • No significant clouds
Conditions
From Aug-21 @ 18:00 - Aug-22 @ 02:00
Wind Visibility
290° at 15 knots
 Gusting to 25 knots
10,000+ meters
Clouds
  • No significant clouds
Conditions
From Aug-22 @ 02:00 - Aug-22 @ 06:00
Wind Visibility
180° at 14 knots 10,000+ meters
Clouds
  • Scattered at 4,000' AGL